sensor_id;sensor_type;location;lat;lon;timestamp;P1;durP1;ratioP1;P2;durP2;ratioP2
7025;SDS011;3554;42.132;24.786;2023-02-28T00:00:08;11.67;;;6.83;;
7025;SDS011;3554;42.132;24.786;2023-02-28T00:02:37;7.67;;;6.93;;
7025;SDS011;3554;42.132;24.786;2023-02-28T00:05:04;11.80;;;7.07;;
7025;SDS011;3554;42.132;24.786;2023-02-28T00:07:32;9.43;;;6.87;;
7025;SDS011;3554;42.132;24.786;2023-02-28T00:09:59;12.50;;;6.83;;
7025;SDS011;3554;42.132;24.786;2023-02-28T00:12:26;9.00;;;7.47;;
7025;SDS011;3554;42.132;24.786;2023-02-28T00:14:54;8.03;;;6.47;;
7025;SDS011;3554;42.132;24.786;2023-02-28T00:17:21;8.50;;;7.00;;
7025;SDS011;3554;42.132;24.786;2023-02-28T00:19:48;10.50;;;6.87;;
7025;SDS011;3554;42.132;24.786;2023-02-28T00:22:16;8.67;;;6.73;;
7025;SDS011;3554;42.132;24.786;2023-02-28T00:24:43;12.23;;;7.50;;
7025;SDS011;3554;42.132;24.786;2023-02-28T00:27:11;11.10;;;7.03;;
7025;SDS011;3554;42.132;24.786;2023-02-28T00:29:38;7.10;;;6.33;;
7025;SDS011;3554;42.132;24.786;2023-02-28T00:32:06;11.00;;;6.93;;
7025;SDS011;3554;42.132;24.786;2023-02-28T00:34:33;7.03;;;6.43;;
7025;SDS011;3554;42.132;24.786;2023-02-28T00:37:02;7.20;;;6.17;;
7025;SDS011;3554;42.132;24.786;2023-02-28T00:39:30;10.20;;;7.00;;
7025;SDS011;3554;42.132;24.786;2023-02-28T00:41:57;10.93;;;6.77;;
7025;SDS011;3554;42.132;24.786;2023-02-28T00:44:24;8.73;;;6.50;;
7025;SDS011;3554;42.132;24.786;2023-02-28T00:46:51;8.30;;;7.10;;
7025;SDS011;3554;42.132;24.786;2023-02-28T00:49:20;7.80;;;6.47;;
7025;SDS011;3554;42.132;24.786;2023-02-28T00:51:47;15.80;;;7.03;;
7025;SDS011;3554;42.132;24.786;2023-02-28T00:54:14;14.27;;;7.53;;
7025;SDS011;3554;42.132;24.786;2023-02-28T00:56:41;7.93;;;7.03;;
7025;SDS011;3554;42.132;24.786;2023-02-28T00:59:08;7.50;;;6.73;;
7025;SDS011;3554;42.132;24.786;2023-02-28T01:01:36;11.73;;;7.03;;
7025;SDS011;3554;42.132;24.786;2023-02-28T01:04:03;13.50;;;7.00;;
7025;SDS011;3554;42.132;24.786;2023-02-28T01:06:31;7.30;;;6.60;;
7025;SDS011;3554;42.132;24.786;2023-02-28T01:08:58;10.37;;;7.47;;
7025;SDS011;3554;42.132;24.786;2023-02-28T01:11:25;8.03;;;5.90;;
7025;SDS011;3554;42.132;24.786;2023-02-28T01:13:52;11.43;;;7.17;;
7025;SDS011;3554;42.132;24.786;2023-02-28T01:16:19;15.40;;;6.90;;
7025;SDS011;3554;42.132;24.786;2023-02-28T01:18:46;10.13;;;7.43;;
7025;SDS011;3554;42.132;24.786;2023-02-28T01:21:13;7.93;;;7.30;;
7025;SDS011;3554;42.132;24.786;2023-02-28T01:23:43;13.77;;;6.90;;
7025;SDS011;3554;42.132;24.786;2023-02-28T01:26:12;7.73;;;6.30;;
7025;SDS011;3554;42.132;24.786;2023-02-28T01:28:40;15.17;;;7.00;;
7025;SDS011;3554;42.132;24.786;2023-02-28T01:31:07;11.67;;;6.50;;
7025;SDS011;3554;42.132;24.786;2023-02-28T01:33:35;9.67;;;6.50;;
7025;SDS011;3554;42.132;24.786;2023-02-28T01:36:03;9.07;;;6.30;;
7025;SDS011;3554;42.132;24.786;2023-02-28T01:38:31;7.97;;;7.17;;
7025;SDS011;3554;42.132;24.786;2023-02-28T01:41:01;10.67;;;5.97;;
7025;SDS011;3554;42.132;24.786;2023-02-28T01:43:29;7.20;;;6.23;;
7025;SDS011;3554;42.132;24.786;2023-02-28T01:45:57;7.93;;;5.70;;
7025;SDS011;3554;42.132;24.786;2023-02-28T01:48:26;9.70;;;5.33;;
7025;SDS011;3554;42.132;24.786;2023-02-28T01:50:58;9.83;;;5.97;;
7025;SDS011;3554;42.132;24.786;2023-02-28T01:53:29;10.73;;;5.47;;
7025;SDS011;3554;42.132;24.786;2023-02-28T01:56:01;7.33;;;6.50;;
7025;SDS011;3554;42.132;24.786;2023-02-28T01:58:32;7.40;;;5.80;;
7025;SDS011;3554;42.132;24.786;2023-02-28T02:00:59;7.77;;;6.30;;
7025;SDS011;3554;42.132;24.786;2023-02-28T02:03:28;8.37;;;6.73;;
7025;SDS011;3554;42.132;24.786;2023-02-28T02:05:56;9.13;;;6.93;;
7025;SDS011;3554;42.132;24.786;2023-02-28T02:08:23;8.40;;;6.77;;
7025;SDS011;3554;42.132;24.786;2023-02-28T02:10:53;12.80;;;7.70;;
7025;SDS011;3554;42.132;24.786;2023-02-28T02:13:28;8.30;;;7.27;;
7025;SDS011;3554;42.132;24.786;2023-02-28T02:16:04;9.67;;;7.13;;
7025;SDS011;3554;42.132;24.786;2023-02-28T02:18:46;11.83;;;7.43;;
7025;SDS011;3554;42.132;24.786;2023-02-28T02:24:25;16.50;;;7.87;;
7025;SDS011;3554;42.132;24.786;2023-02-28T02:27:20;9.43;;;8.20;;
7025;SDS011;3554;42.132;24.786;2023-02-28T02:30:07;11.07;;;8.27;;
7025;SDS011;3554;42.132;24.786;2023-02-28T02:33:05;16.73;;;8.23;;
7025;SDS011;3554;42.132;24.786;2023-02-28T02:35:41;10.03;;;7.90;;
7025;SDS011;3554;42.132;24.786;2023-02-28T02:38:14;9.30;;;7.30;;
7025;SDS011;3554;42.132;24.786;2023-02-28T02:40:54;12.17;;;8.57;;
7025;SDS011;3554;42.132;24.786;2023-02-28T02:43:25;13.83;;;8.47;;
7025;SDS011;3554;42.132;24.786;2023-02-28T02:45:56;11.33;;;8.27;;
7025;SDS011;3554;42.132;24.786;2023-02-28T02:48:30;12.67;;;8.57;;
7025;SDS011;3554;42.132;24.786;2023-02-28T02:51:03;14.83;;;8.40;;
7025;SDS011;3554;42.132;24.786;2023-02-28T02:53:37;12.33;;;9.07;;
7025;SDS011;3554;42.132;24.786;2023-02-28T02:56:07;13.90;;;9.00;;
7025;SDS011;3554;42.132;24.786;2023-02-28T02:58:36;16.53;;;9.23;;
7025;SDS011;3554;42.132;24.786;2023-02-28T03:01:07;16.37;;;9.40;;
7025;SDS011;3554;42.132;24.786;2023-02-28T03:03:37;14.53;;;9.97;;
7025;SDS011;3554;42.132;24.786;2023-02-28T03:06:05;11.63;;;9.17;;
7025;SDS011;3554;42.132;24.786;2023-02-28T03:08:34;19.00;;;9.27;;
7025;SDS011;3554;42.132;24.786;2023-02-28T03:11:03;13.70;;;9.17;;
7025;SDS011;3554;42.132;24.786;2023-02-28T03:13:37;11.83;;;8.77;;
7025;SDS011;3554;42.132;24.786;2023-02-28T03:16:23;12.60;;;8.87;;
7025;SDS011;3554;42.132;24.786;2023-02-28T03:19:02;12.80;;;9.80;;
7025;SDS011;3554;42.132;24.786;2023-02-28T03:21:40;11.37;;;10.17;;
7025;SDS011;3554;42.132;24.786;2023-02-28T03:24:16;18.50;;;10.53;;
7025;SDS011;3554;42.132;24.786;2023-02-28T03:26:50;16.10;;;9.83;;
7025;SDS011;3554;42.132;24.786;2023-02-28T03:29:27;9.93;;;8.43;;
7025;SDS011;3554;42.132;24.786;2023-02-28T03:32:02;15.30;;;10.40;;
7025;SDS011;3554;42.132;24.786;2023-02-28T03:34:39;9.30;;;7.33;;
7025;SDS011;3554;42.132;24.786;2023-02-28T03:37:15;15.13;;;10.37;;
7025;SDS011;3554;42.132;24.786;2023-02-28T03:39:46;11.90;;;9.80;;
7025;SDS011;3554;42.132;24.786;2023-02-28T03:42:18;12.80;;;9.03;;
7025;SDS011;3554;42.132;24.786;2023-02-28T03:44:49;16.73;;;10.23;;
7025;SDS011;3554;42.132;24.786;2023-02-28T03:47:21;11.27;;;9.93;;
7025;SDS011;3554;42.132;24.786;2023-02-28T03:49:52;15.03;;;9.53;;
7025;SDS011;3554;42.132;24.786;2023-02-28T03:52:22;9.73;;;8.77;;
7025;SDS011;3554;42.132;24.786;2023-02-28T03:54:54;13.70;;;11.47;;
7025;SDS011;3554;42.132;24.786;2023-02-28T03:57:26;13.90;;;9.60;;
7025;SDS011;3554;42.132;24.786;2023-02-28T03:59:59;12.50;;;10.83;;
7025;SDS011;3554;42.132;24.786;2023-02-28T04:02:31;11.97;;;9.33;;
7025;SDS011;3554;42.132;24.786;2023-02-28T04:04:58;16.87;;;11.77;;
7025;SDS011;3554;42.132;24.786;2023-02-28T04:07:29;11.87;;;10.73;;
7025;SDS011;3554;42.132;24.786;2023-02-28T04:09:57;12.73;;;9.80;;
7025;SDS011;3554;42.132;24.786;2023-02-28T04:12:25;14.00;;;11.23;;
7025;SDS011;3554;42.132;24.786;2023-02-28T04:14:52;12.07;;;10.37;;
7025;SDS011;3554;42.132;24.786;2023-02-28T04:17:19;13.77;;;10.40;;
7025;SDS011;3554;42.132;24.786;2023-02-28T04:19:45;18.13;;;9.70;;
7025;SDS011;3554;42.132;24.786;2023-02-28T04:22:12;15.53;;;9.57;;
7025;SDS011;3554;42.132;24.786;2023-02-28T04:24:41;11.83;;;9.97;;
7025;SDS011;3554;42.132;24.786;2023-02-28T04:27:08;10.87;;;9.53;;
7025;SDS011;3554;42.132;24.786;2023-02-28T04:29:35;14.53;;;9.33;;
7025;SDS011;3554;42.132;24.786;2023-02-28T04:32:02;12.73;;;9.70;;
7025;SDS011;3554;42.132;24.786;2023-02-28T04:34:30;12.40;;;9.43;;
7025;SDS011;3554;42.132;24.786;2023-02-28T04:36:58;21.80;;;10.73;;
7025;SDS011;3554;42.132;24.786;2023-02-28T04:39:25;11.60;;;9.90;;
7025;SDS011;3554;42.132;24.786;2023-02-28T04:41:53;11.83;;;8.70;;
7025;SDS011;3554;42.132;24.786;2023-02-28T04:44:20;12.10;;;10.10;;
7025;SDS011;3554;42.132;24.786;2023-02-28T04:46:48;14.53;;;10.47;;
7025;SDS011;3554;42.132;24.786;2023-02-28T04:49:15;12.33;;;10.23;;
7025;SDS011;3554;42.132;24.786;2023-02-28T04:51:42;12.63;;;8.83;;
7025;SDS011;3554;42.132;24.786;2023-02-28T04:54:09;12.40;;;11.20;;
7025;SDS011;3554;42.132;24.786;2023-02-28T04:56:36;8.77;;;7.17;;
7025;SDS011;3554;42.132;24.786;2023-02-28T04:59:04;16.73;;;9.93;;
7025;SDS011;3554;42.132;24.786;2023-02-28T05:01:31;8.07;;;6.27;;
7025;SDS011;3554;42.132;24.786;2023-02-28T05:04:00;12.27;;;9.70;;
7025;SDS011;3554;42.132;24.786;2023-02-28T05:06:28;16.87;;;9.13;;
7025;SDS011;3554;42.132;24.786;2023-02-28T05:08:56;9.43;;;7.87;;
7025;SDS011;3554;42.132;24.786;2023-02-28T05:11:24;15.07;;;9.60;;
7025;SDS011;3554;42.132;24.786;2023-02-28T05:13:54;9.97;;;8.73;;
7025;SDS011;3554;42.132;24.786;2023-02-28T05:16:22;9.70;;;8.70;;
7025;SDS011;3554;42.132;24.786;2023-02-28T05:18:49;13.40;;;9.10;;
7025;SDS011;3554;42.132;24.786;2023-02-28T05:24:02;10.17;;;8.13;;
7025;SDS011;3554;42.132;24.786;2023-02-28T05:26:31;6.97;;;6.33;;
7025;SDS011;3554;42.132;24.786;2023-02-28T05:29:01;7.97;;;7.20;;
7025;SDS011;3554;42.132;24.786;2023-02-28T05:31:29;10.90;;;9.50;;
7025;SDS011;3554;42.132;24.786;2023-02-28T05:33:56;10.10;;;8.90;;
7025;SDS011;3554;42.132;24.786;2023-02-28T05:36:23;12.37;;;9.93;;
7025;SDS011;3554;42.132;24.786;2023-02-28T05:38:50;8.80;;;6.83;;
7025;SDS011;3554;42.132;24.786;2023-02-28T05:41:18;11.73;;;10.53;;
7025;SDS011;3554;42.132;24.786;2023-02-28T05:43:45;13.67;;;10.33;;
7025;SDS011;3554;42.132;24.786;2023-02-28T05:46:13;15.13;;;4.97;;
7025;SDS011;3554;42.132;24.786;2023-02-28T05:48:41;16.23;;;9.17;;
7025;SDS011;3554;42.132;24.786;2023-02-28T05:51:11;17.17;;;11.30;;
7025;SDS011;3554;42.132;24.786;2023-02-28T05:53:38;19.40;;;10.90;;
7025;SDS011;3554;42.132;24.786;2023-02-28T05:56:05;15.63;;;11.27;;
7025;SDS011;3554;42.132;24.786;2023-02-28T05:58:32;14.30;;;10.70;;
7025;SDS011;3554;42.132;24.786;2023-02-28T06:01:00;12.90;;;11.53;;
7025;SDS011;3554;42.132;24.786;2023-02-28T06:03:27;8.67;;;7.87;;
7025;SDS011;3554;42.132;24.786;2023-02-28T06:05:55;15.93;;;10.07;;
7025;SDS011;3554;42.132;24.786;2023-02-28T06:08:22;15.77;;;11.20;;
7025;SDS011;3554;42.132;24.786;2023-02-28T06:10:49;15.47;;;11.13;;
7025;SDS011;3554;42.132;24.786;2023-02-28T06:13:16;11.40;;;9.10;;
7025;SDS011;3554;42.132;24.786;2023-02-28T06:15:42;10.27;;;7.83;;
7025;SDS011;3554;42.132;24.786;2023-02-28T06:18:09;12.70;;;10.83;;
7025;SDS011;3554;42.132;24.786;2023-02-28T06:20:36;13.97;;;11.23;;
7025;SDS011;3554;42.132;24.786;2023-02-28T06:23:04;14.33;;;9.73;;
7025;SDS011;3554;42.132;24.786;2023-02-28T06:25:31;15.20;;;8.33;;
7025;SDS011;3554;42.132;24.786;2023-02-28T06:27:58;14.90;;;8.77;;
7025;SDS011;3554;42.132;24.786;2023-02-28T06:30:24;12.50;;;8.33;;
7025;SDS011;3554;42.132;24.786;2023-02-28T06:32:53;12.87;;;9.90;;
7025;SDS011;3554;42.132;24.786;2023-02-28T06:35:20;9.27;;;8.43;;
7025;SDS011;3554;42.132;24.786;2023-02-28T06:37:47;13.40;;;8.23;;
7025;SDS011;3554;42.132;24.786;2023-02-28T06:40:15;16.17;;;9.50;;
7025;SDS011;3554;42.132;24.786;2023-02-28T06:42:42;15.17;;;11.17;;
7025;SDS011;3554;42.132;24.786;2023-02-28T06:45:10;13.17;;;9.47;;
7025;SDS011;3554;42.132;24.786;2023-02-28T06:47:37;12.50;;;10.30;;
7025;SDS011;3554;42.132;24.786;2023-02-28T06:50:06;14.43;;;12.83;;
7025;SDS011;3554;42.132;24.786;2023-02-28T06:52:34;21.93;;;14.37;;
7025;SDS011;3554;42.132;24.786;2023-02-28T06:55:02;23.83;;;13.80;;
7025;SDS011;3554;42.132;24.786;2023-02-28T06:57:31;13.57;;;11.53;;
7025;SDS011;3554;42.132;24.786;2023-02-28T06:59:59;11.03;;;9.83;;
7025;SDS011;3554;42.132;24.786;2023-02-28T07:02:28;16.13;;;10.97;;
7025;SDS011;3554;42.132;24.786;2023-02-28T07:04:54;12.70;;;7.37;;
7025;SDS011;3554;42.132;24.786;2023-02-28T07:07:21;12.80;;;9.87;;
7025;SDS011;3554;42.132;24.786;2023-02-28T07:09:48;10.33;;;9.33;;
7025;SDS011;3554;42.132;24.786;2023-02-28T07:12:15;11.50;;;9.57;;
7025;SDS011;3554;42.132;24.786;2023-02-28T07:14:43;11.53;;;9.53;;
7025;SDS011;3554;42.132;24.786;2023-02-28T07:17:10;14.37;;;11.63;;
7025;SDS011;3554;42.132;24.786;2023-02-28T07:19:37;10.13;;;8.97;;
7025;SDS011;3554;42.132;24.786;2023-02-28T07:22:04;10.10;;;8.70;;
7025;SDS011;3554;42.132;24.786;2023-02-28T07:24:33;20.33;;;12.03;;
7025;SDS011;3554;42.132;24.786;2023-02-28T07:26:59;16.23;;;12.10;;
7025;SDS011;3554;42.132;24.786;2023-02-28T07:29:27;15.33;;;12.07;;
7025;SDS011;3554;42.132;24.786;2023-02-28T07:31:55;10.67;;;9.67;;
7025;SDS011;3554;42.132;24.786;2023-02-28T07:34:23;15.60;;;12.63;;
7025;SDS011;3554;42.132;24.786;2023-02-28T07:36:52;10.73;;;9.60;;
7025;SDS011;3554;42.132;24.786;2023-02-28T07:39:19;20.13;;;13.03;;
7025;SDS011;3554;42.132;24.786;2023-02-28T07:41:46;21.53;;;14.67;;
7025;SDS011;3554;42.132;24.786;2023-02-28T07:44:13;21.27;;;13.67;;
7025;SDS011;3554;42.132;24.786;2023-02-28T07:46:40;16.30;;;13.30;;
7025;SDS011;3554;42.132;24.786;2023-02-28T07:49:08;18.10;;;13.07;;
7025;SDS011;3554;42.132;24.786;2023-02-28T07:51:35;17.50;;;12.67;;
7025;SDS011;3554;42.132;24.786;2023-02-28T07:54:01;23.00;;;15.60;;
7025;SDS011;3554;42.132;24.786;2023-02-28T07:56:29;23.70;;;14.10;;
7025;SDS011;3554;42.132;24.786;2023-02-28T07:58:55;24.10;;;13.47;;
7025;SDS011;3554;42.132;24.786;2023-02-28T08:01:22;16.33;;;11.97;;
7025;SDS011;3554;42.132;24.786;2023-02-28T08:03:49;20.53;;;13.87;;
7025;SDS011;3554;42.132;24.786;2023-02-28T08:06:18;26.30;;;13.47;;
7025;SDS011;3554;42.132;24.786;2023-02-28T08:08:47;18.23;;;12.20;;
7025;SDS011;3554;42.132;24.786;2023-02-28T08:11:15;19.37;;;12.77;;
7025;SDS011;3554;42.132;24.786;2023-02-28T08:13:42;18.40;;;11.97;;
7025;SDS011;3554;42.132;24.786;2023-02-28T08:16:10;15.97;;;11.03;;
7025;SDS011;3554;42.132;24.786;2023-02-28T08:18:39;19.67;;;12.60;;
7025;SDS011;3554;42.132;24.786;2023-02-28T08:21:06;21.27;;;12.67;;
7025;SDS011;3554;42.132;24.786;2023-02-28T08:23:34;16.67;;;13.10;;
7025;SDS011;3554;42.132;24.786;2023-02-28T08:26:01;23.63;;;13.90;;
7025;SDS011;3554;42.132;24.786;2023-02-28T08:28:29;14.97;;;13.30;;
7025;SDS011;3554;42.132;24.786;2023-02-28T08:30:56;19.70;;;13.70;;
7025;SDS011;3554;42.132;24.786;2023-02-28T08:33:23;17.87;;;13.10;;
7025;SDS011;3554;42.132;24.786;2023-02-28T08:35:52;19.30;;;14.37;;
7025;SDS011;3554;42.132;24.786;2023-02-28T08:38:20;17.37;;;14.00;;
7025;SDS011;3554;42.132;24.786;2023-02-28T08:40:48;23.30;;;14.47;;
7025;SDS011;3554;42.132;24.786;2023-02-28T08:43:15;19.83;;;15.37;;
7025;SDS011;3554;42.132;24.786;2023-02-28T08:45:42;24.10;;;16.33;;
7025;SDS011;3554;42.132;24.786;2023-02-28T08:48:09;21.93;;;15.93;;
7025;SDS011;3554;42.132;24.786;2023-02-28T08:50:35;22.50;;;15.40;;
7025;SDS011;3554;42.132;24.786;2023-02-28T08:53:02;22.17;;;13.13;;
7025;SDS011;3554;42.132;24.786;2023-02-28T08:55:29;26.87;;;17.10;;
7025;SDS011;3554;42.132;24.786;2023-02-28T08:57:57;21.10;;;15.20;;
7025;SDS011;3554;42.132;24.786;2023-02-28T09:00:24;21.63;;;15.40;;
7025;SDS011;3554;42.132;24.786;2023-02-28T09:02:51;20.67;;;14.07;;
7025;SDS011;3554;42.132;24.786;2023-02-28T09:05:18;22.03;;;15.43;;
7025;SDS011;3554;42.132;24.786;2023-02-28T09:07:44;20.50;;;15.03;;
7025;SDS011;3554;42.132;24.786;2023-02-28T09:10:11;22.73;;;16.10;;
7025;SDS011;3554;42.132;24.786;2023-02-28T09:12:38;26.03;;;17.07;;
7025;SDS011;3554;42.132;24.786;2023-02-28T09:15:07;22.93;;;15.80;;
7025;SDS011;3554;42.132;24.786;2023-02-28T09:17:34;17.93;;;15.80;;
7025;SDS011;3554;42.132;24.786;2023-02-28T09:20:01;18.83;;;15.20;;
7025;SDS011;3554;42.132;24.786;2023-02-28T09:22:28;19.97;;;16.03;;
7025;SDS011;3554;42.132;24.786;2023-02-28T09:24:55;19.77;;;15.13;;
7025;SDS011;3554;42.132;24.786;2023-02-28T09:27:22;24.43;;;17.17;;
7025;SDS011;3554;42.132;24.786;2023-02-28T09:29:49;21.03;;;15.83;;
7025;SDS011;3554;42.132;24.786;2023-02-28T09:32:17;23.63;;;15.80;;
7025;SDS011;3554;42.132;24.786;2023-02-28T09:34:44;23.70;;;15.83;;
7025;SDS011;3554;42.132;24.786;2023-02-28T09:37:10;24.00;;;17.30;;
7025;SDS011;3554;42.132;24.786;2023-02-28T09:39:37;25.10;;;17.80;;
7025;SDS011;3554;42.132;24.786;2023-02-28T09:42:04;20.00;;;13.57;;
7025;SDS011;3554;42.132;24.786;2023-02-28T09:44:32;22.97;;;16.43;;
7025;SDS011;3554;42.132;24.786;2023-02-28T09:47:05;21.67;;;14.80;;
7025;SDS011;3554;42.132;24.786;2023-02-28T09:49:41;23.40;;;14.33;;
7025;SDS011;3554;42.132;24.786;2023-02-28T09:52:12;18.37;;;15.37;;
7025;SDS011;3554;42.132;24.786;2023-02-28T09:54:44;19.87;;;16.77;;
7025;SDS011;3554;42.132;24.786;2023-02-28T09:57:13;21.17;;;16.17;;
7025;SDS011;3554;42.132;24.786;2023-02-28T09:59:54;23.93;;;18.23;;
7025;SDS011;3554;42.132;24.786;2023-02-28T10:05:51;21.60;;;15.57;;
7025;SDS011;3554;42.132;24.786;2023-02-28T10:08:21;22.80;;;16.27;;
7025;SDS011;3554;42.132;24.786;2023-02-28T10:10:54;25.27;;;17.20;;
7025;SDS011;3554;42.132;24.786;2023-02-28T10:13:25;23.63;;;17.53;;
7025;SDS011;3554;42.132;24.786;2023-02-28T10:15:59;30.27;;;18.30;;
7025;SDS011;3554;42.132;24.786;2023-02-28T10:18:35;24.67;;;17.73;;
7025;SDS011;3554;42.132;24.786;2023-02-28T10:21:10;22.40;;;15.90;;
7025;SDS011;3554;42.132;24.786;2023-02-28T10:23:45;26.00;;;17.97;;
7025;SDS011;3554;42.132;24.786;2023-02-28T10:26:14;24.80;;;19.30;;
7025;SDS011;3554;42.132;24.786;2023-02-28T10:28:44;27.43;;;18.70;;
7025;SDS011;3554;42.132;24.786;2023-02-28T10:31:11;26.53;;;18.10;;
7025;SDS011;3554;42.132;24.786;2023-02-28T10:33:43;25.60;;;18.63;;
7025;SDS011;3554;42.132;24.786;2023-02-28T10:36:12;26.23;;;17.17;;
7025;SDS011;3554;42.132;24.786;2023-02-28T10:38:41;26.93;;;19.27;;
7025;SDS011;3554;42.132;24.786;2023-02-28T10:41:10;26.40;;;19.60;;
7025;SDS011;3554;42.132;24.786;2023-02-28T10:43:39;29.23;;;15.50;;
7025;SDS011;3554;42.132;24.786;2023-02-28T10:46:12;24.43;;;18.20;;
7025;SDS011;3554;42.132;24.786;2023-02-28T10:48:57;23.73;;;18.33;;
7025;SDS011;3554;42.132;24.786;2023-02-28T10:51:35;25.93;;;18.50;;
7025;SDS011;3554;42.132;24.786;2023-02-28T10:54:04;20.50;;;15.53;;
7025;SDS011;3554;42.132;24.786;2023-02-28T10:56:32;21.13;;;15.90;;
7025;SDS011;3554;42.132;24.786;2023-02-28T10:59:00;27.20;;;18.50;;
7025;SDS011;3554;42.132;24.786;2023-02-28T11:01:35;23.73;;;18.43;;
7025;SDS011;3554;42.132;24.786;2023-02-28T11:04:16;24.37;;;17.10;;
7025;SDS011;3554;42.132;24.786;2023-02-28T11:06:46;26.30;;;17.53;;
7025;SDS011;3554;42.132;24.786;2023-02-28T11:09:18;22.10;;;16.60;;
7025;SDS011;3554;42.132;24.786;2023-02-28T11:11:49;25.80;;;17.60;;
7025;SDS011;3554;42.132;24.786;2023-02-28T11:14:18;21.90;;;15.83;;
7025;SDS011;3554;42.132;24.786;2023-02-28T11:16:47;17.20;;;12.37;;
7025;SDS011;3554;42.132;24.786;2023-02-28T11:19:17;24.90;;;15.73;;
7025;SDS011;3554;42.132;24.786;2023-02-28T11:21:52;27.20;;;18.70;;
7025;SDS011;3554;42.132;24.786;2023-02-28T11:24:23;18.80;;;14.13;;
7025;SDS011;3554;42.132;24.786;2023-02-28T11:26:53;26.67;;;16.73;;
7025;SDS011;3554;42.132;24.786;2023-02-28T11:29:21;25.73;;;18.83;;
7025;SDS011;3554;42.132;24.786;2023-02-28T11:32:01;29.53;;;18.00;;
7025;SDS011;3554;42.132;24.786;2023-02-28T11:34:30;24.27;;;18.47;;
7025;SDS011;3554;42.132;24.786;2023-02-28T11:36:59;20.07;;;15.27;;
7025;SDS011;3554;42.132;24.786;2023-02-28T11:39:30;29.10;;;19.57;;
7025;SDS011;3554;42.132;24.786;2023-02-28T11:42:04;29.77;;;19.50;;
7025;SDS011;3554;42.132;24.786;2023-02-28T11:44:42;32.90;;;22.20;;
7025;SDS011;3554;42.132;24.786;2023-02-28T11:47:21;31.10;;;19.37;;
7025;SDS011;3554;42.132;24.786;2023-02-28T11:49:58;27.70;;;19.67;;
7025;SDS011;3554;42.132;24.786;2023-02-28T11:52:39;36.37;;;22.33;;
7025;SDS011;3554;42.132;24.786;2023-02-28T11:55:14;32.17;;;22.23;;
7025;SDS011;3554;42.132;24.786;2023-02-28T12:03:40;30.27;;;20.73;;
7025;SDS011;3554;42.132;24.786;2023-02-28T12:06:14;41.73;;;21.93;;
7025;SDS011;3554;42.132;24.786;2023-02-28T12:08:51;36.00;;;24.43;;
7025;SDS011;3554;42.132;24.786;2023-02-28T12:11:30;36.23;;;23.43;;
7025;SDS011;3554;42.132;24.786;2023-02-28T12:16:58;38.97;;;24.70;;
7025;SDS011;3554;42.132;24.786;2023-02-28T12:19:38;24.27;;;16.40;;
7025;SDS011;3554;42.132;24.786;2023-02-28T12:22:20;47.13;;;25.07;;
7025;SDS011;3554;42.132;24.786;2023-02-28T12:25:13;39.20;;;25.53;;
7025;SDS011;3554;42.132;24.786;2023-02-28T12:27:50;34.33;;;23.33;;
7025;SDS011;3554;42.132;24.786;2023-02-28T12:30:19;34.73;;;22.77;;
7025;SDS011;3554;42.132;24.786;2023-02-28T12:32:51;34.33;;;23.97;;
7025;SDS011;3554;42.132;24.786;2023-02-28T12:35:23;27.03;;;19.70;;
7025;SDS011;3554;42.132;24.786;2023-02-28T12:37:55;39.27;;;25.90;;
7025;SDS011;3554;42.132;24.786;2023-02-28T12:40:41;39.73;;;24.30;;
7025;SDS011;3554;42.132;24.786;2023-02-28T12:43:11;31.50;;;19.97;;
7025;SDS011;3554;42.132;24.786;2023-02-28T12:45:41;29.47;;;19.03;;
7025;SDS011;3554;42.132;24.786;2023-02-28T12:48:14;35.67;;;22.53;;
7025;SDS011;3554;42.132;24.786;2023-02-28T12:50:50;36.53;;;23.97;;
7025;SDS011;3554;42.132;24.786;2023-02-28T12:53:19;36.37;;;21.23;;
7025;SDS011;3554;42.132;24.786;2023-02-28T12:55:56;40.10;;;26.33;;
7025;SDS011;3554;42.132;24.786;2023-02-28T12:58:31;31.67;;;19.83;;
7025;SDS011;3554;42.132;24.786;2023-02-28T13:04:15;35.70;;;23.77;;
7025;SDS011;3554;42.132;24.786;2023-02-28T13:06:59;29.47;;;21.93;;
7025;SDS011;3554;42.132;24.786;2023-02-28T13:09:38;31.73;;;18.27;;
7025;SDS011;3554;42.132;24.786;2023-02-28T13:12:13;29.83;;;20.87;;
7025;SDS011;3554;42.132;24.786;2023-02-28T13:14:41;35.70;;;23.87;;
7025;SDS011;3554;42.132;24.786;2023-02-28T13:17:11;39.37;;;23.23;;
7025;SDS011;3554;42.132;24.786;2023-02-28T13:19:45;34.00;;;22.50;;
7025;SDS011;3554;42.132;24.786;2023-02-28T13:22:36;38.00;;;23.57;;
7025;SDS011;3554;42.132;24.786;2023-02-28T13:31:19;36.97;;;23.20;;
7025;SDS011;3554;42.132;24.786;2023-02-28T13:34:05;39.43;;;25.00;;
7025;SDS011;3554;42.132;24.786;2023-02-28T13:36:40;38.30;;;23.47;;
7025;SDS011;3554;42.132;24.786;2023-02-28T13:42:23;40.07;;;25.30;;
7025;SDS011;3554;42.132;24.786;2023-02-28T13:47:59;26.40;;;17.70;;
7025;SDS011;3554;42.132;24.786;2023-02-28T13:50:28;38.47;;;26.47;;
7025;SDS011;3554;42.132;24.786;2023-02-28T13:53:06;43.90;;;27.93;;
7025;SDS011;3554;42.132;24.786;2023-02-28T13:55:57;28.73;;;18.37;;
7025;SDS011;3554;42.132;24.786;2023-02-28T13:58:35;20.43;;;11.57;;
7025;SDS011;3554;42.132;24.786;2023-02-28T14:01:22;36.23;;;24.10;;
7025;SDS011;3554;42.132;24.786;2023-02-28T14:04:09;23.33;;;15.40;;
7025;SDS011;3554;42.132;24.786;2023-02-28T14:06:48;25.53;;;20.63;;
7025;SDS011;3554;42.132;24.786;2023-02-28T14:09:19;31.17;;;21.07;;
7025;SDS011;3554;42.132;24.786;2023-02-28T14:11:50;18.47;;;12.43;;
7025;SDS011;3554;42.132;24.786;2023-02-28T14:17:22;27.90;;;22.13;;
7025;SDS011;3554;42.132;24.786;2023-02-28T14:19:52;32.60;;;22.03;;
7025;SDS011;3554;42.132;24.786;2023-02-28T14:22:40;29.87;;;22.87;;
7025;SDS011;3554;42.132;24.786;2023-02-28T14:25:18;26.27;;;19.60;;
7025;SDS011;3554;42.132;24.786;2023-02-28T14:27:58;21.13;;;17.60;;
7025;SDS011;3554;42.132;24.786;2023-02-28T14:30:40;21.40;;;17.03;;
7025;SDS011;3554;42.132;24.786;2023-02-28T14:33:27;17.90;;;15.17;;
7025;SDS011;3554;42.132;24.786;2023-02-28T14:36:06;23.60;;;18.40;;
7025;SDS011;3554;42.132;24.786;2023-02-28T14:38:40;26.47;;;20.23;;
7025;SDS011;3554;42.132;24.786;2023-02-28T14:41:21;32.60;;;23.70;;
7025;SDS011;3554;42.132;24.786;2023-02-28T14:43:50;18.57;;;15.57;;
7025;SDS011;3554;42.132;24.786;2023-02-28T14:46:19;32.37;;;21.97;;
7025;SDS011;3554;42.132;24.786;2023-02-28T14:48:46;24.13;;;19.43;;
7025;SDS011;3554;42.132;24.786;2023-02-28T14:51:19;22.47;;;17.83;;
7025;SDS011;3554;42.132;24.786;2023-02-28T14:53:48;23.80;;;18.13;;
7025;SDS011;3554;42.132;24.786;2023-02-28T14:56:21;26.13;;;18.07;;
7025;SDS011;3554;42.132;24.786;2023-02-28T14:58:51;20.27;;;17.33;;
7025;SDS011;3554;42.132;24.786;2023-02-28T15:01:19;18.53;;;16.53;;
7025;SDS011;3554;42.132;24.786;2023-02-28T15:03:48;24.87;;;18.03;;
7025;SDS011;3554;42.132;24.786;2023-02-28T15:06:24;20.53;;;16.97;;
7025;SDS011;3554;42.132;24.786;2023-02-28T15:09:06;23.40;;;17.43;;
7025;SDS011;3554;42.132;24.786;2023-02-28T15:11:34;24.33;;;17.03;;
7025;SDS011;3554;42.132;24.786;2023-02-28T15:14:03;20.07;;;15.53;;
7025;SDS011;3554;42.132;24.786;2023-02-28T15:16:31;23.67;;;17.00;;
7025;SDS011;3554;42.132;24.786;2023-02-28T15:19:01;20.37;;;16.97;;
7025;SDS011;3554;42.132;24.786;2023-02-28T15:21:33;24.10;;;17.00;;
7025;SDS011;3554;42.132;24.786;2023-02-28T15:24:03;18.60;;;14.03;;
7025;SDS011;3554;42.132;24.786;2023-02-28T15:26:33;17.27;;;14.70;;
7025;SDS011;3554;42.132;24.786;2023-02-28T15:29:05;16.07;;;12.67;;
7025;SDS011;3554;42.132;24.786;2023-02-28T15:31:34;22.93;;;14.97;;
7025;SDS011;3554;42.132;24.786;2023-02-28T15:34:15;19.17;;;13.97;;
7025;SDS011;3554;42.132;24.786;2023-02-28T15:36:47;14.33;;;12.13;;